createdAt,value
2023-05-05T00:01:00.860Z,100.00
2023-05-05T00:03:29.508Z,100.00
2023-05-05T00:05:58.118Z,100.00
2023-05-05T00:08:26.374Z,100.00
2023-05-05T00:10:54.827Z,100.00
2023-05-05T00:13:24.833Z,100.00
2023-05-05T00:15:54.684Z,100.00
2023-05-05T00:18:22.935Z,100.00
2023-05-05T00:20:51.564Z,100.00
2023-05-05T00:23:20.792Z,100.00
2023-05-05T00:25:49.046Z,100.00
2023-05-05T00:28:17.031Z,100.00
2023-05-05T00:30:46.676Z,100.00
2023-05-05T00:33:14.903Z,100.00
2023-05-05T00:35:43.376Z,100.00
2023-05-05T00:38:11.612Z,100.00
2023-05-05T00:40:39.726Z,100.00
2023-05-05T00:43:08.354Z,100.00
2023-05-05T00:45:37.450Z,100.00
2023-05-05T00:48:08.005Z,100.00
2023-05-05T00:50:36.832Z,100.00
2023-05-05T00:53:06.750Z,100.00
2023-05-05T00:55:36.774Z,100.00
2023-05-05T00:58:05.568Z,100.00
2023-05-05T01:00:34.321Z,100.00
2023-05-05T01:03:03.343Z,100.00
2023-05-05T01:05:43.600Z,100.00
2023-05-05T01:08:35.367Z,100.00
2023-05-05T01:11:11.550Z,100.00
2023-05-05T01:13:49.334Z,100.00
2023-05-05T01:16:22.266Z,100.00
2023-05-05T01:18:57.923Z,100.00
2023-05-05T01:21:32.748Z,100.00
2023-05-05T01:24:39.386Z,100.00
2023-05-05T01:27:29.440Z,100.00
2023-05-05T01:30:22.132Z,100.00
2023-05-05T01:32:55.386Z,100.00
2023-05-05T01:35:30.184Z,100.00
2023-05-05T01:38:04.318Z,100.00
2023-05-05T01:40:34.965Z,100.00
2023-05-05T01:43:05.076Z,100.00
2023-05-05T01:45:37.005Z,100.00
2023-05-05T01:48:08.292Z,100.00
2023-05-05T01:50:38.013Z,100.00
2023-05-05T01:53:09.674Z,100.00
2023-05-05T01:55:40.663Z,100.00
2023-05-05T01:58:10.416Z,100.00
2023-05-05T02:00:39.649Z,100.00
2023-05-05T02:03:10.438Z,100.00
2023-05-05T02:05:41.270Z,100.00
2023-05-05T02:08:11.037Z,100.00
2023-05-05T02:10:40.944Z,100.00
2023-05-05T02:13:12.552Z,100.00
2023-05-05T02:15:41.564Z,100.00
2023-05-05T02:18:12.236Z,100.00
2023-05-05T02:20:41.725Z,100.00
2023-05-05T02:23:10.086Z,100.00
2023-05-05T02:25:43.229Z,100.00
2023-05-05T02:28:16.825Z,100.00
2023-05-05T02:30:45.342Z,100.00
2023-05-05T02:33:16.570Z,100.00
2023-05-05T02:35:48.014Z,100.00
2023-05-05T02:38:18.982Z,100.00
2023-05-05T02:40:49.463Z,100.00
2023-05-05T02:43:20.698Z,100.00
2023-05-05T02:45:49.357Z,100.00
2023-05-05T02:48:18.953Z,100.00
2023-05-05T02:50:47.020Z,100.00
2023-05-05T02:53:15.477Z,100.00
2023-05-05T02:55:51.838Z,100.00
2023-05-05T02:58:26.004Z,100.00
2023-05-05T03:01:01.931Z,100.00
2023-05-05T03:03:40.085Z,100.00
2023-05-05T03:06:14.479Z,100.00
2023-05-05T03:08:45.966Z,100.00
2023-05-05T03:11:24.306Z,100.00
2023-05-05T03:13:57.686Z,100.00
2023-05-05T03:16:26.921Z,100.00
2023-05-05T03:18:59.017Z,100.00
2023-05-05T03:21:27.668Z,100.00
2023-05-05T03:23:55.736Z,100.00
2023-05-05T03:26:24.824Z,100.00
2023-05-05T03:28:53.127Z,100.00
2023-05-05T03:31:21.248Z,100.00
2023-05-05T03:33:49.406Z,100.00
2023-05-05T03:36:18.890Z,100.00
2023-05-05T03:38:47.022Z,100.00
2023-05-05T03:41:15.044Z,100.00
2023-05-05T03:43:43.053Z,100.00
2023-05-05T03:46:11.400Z,100.00
2023-05-05T03:48:39.892Z,100.00
2023-05-05T03:51:08.003Z,100.00
2023-05-05T03:53:37.499Z,100.00
2023-05-05T03:56:05.962Z,100.00
2023-05-05T03:58:34.323Z,100.00
2023-05-05T04:01:02.348Z,100.00
2023-05-05T04:03:30.532Z,100.00
2023-05-05T04:05:58.813Z,100.00
2023-05-05T04:08:27.009Z,100.00
2023-05-05T04:10:57.491Z,100.00
2023-05-05T04:13:25.591Z,100.00
2023-05-05T04:15:53.767Z,100.00
2023-05-05T04:18:21.807Z,100.00
2023-05-05T04:20:49.979Z,100.00
2023-05-05T04:23:17.979Z,100.00
2023-05-05T04:25:46.111Z,100.00
2023-05-05T04:28:16.034Z,100.00
2023-05-05T04:30:44.041Z,100.00
2023-05-05T04:33:12.111Z,100.00
2023-05-05T04:35:40.190Z,100.00
2023-05-05T04:38:08.289Z,100.00
2023-05-05T04:40:40.324Z,100.00
2023-05-05T04:43:08.505Z,100.00
2023-05-05T04:45:37.948Z,100.00
2023-05-05T04:48:06.705Z,100.00
2023-05-05T04:50:34.817Z,100.00
2023-05-05T04:53:02.913Z,100.00
2023-05-05T04:55:31.017Z,100.00
2023-05-05T04:57:59.055Z,100.00
2023-05-05T05:00:27.555Z,100.00
2023-05-05T05:02:57.411Z,100.00
2023-05-05T05:05:25.510Z,100.00
2023-05-05T05:07:53.518Z,100.00
2023-05-05T05:10:21.665Z,100.00
2023-05-05T05:12:49.752Z,100.00
2023-05-05T05:15:17.738Z,100.00
2023-05-05T05:17:45.934Z,100.00
2023-05-05T05:20:15.361Z,100.00
2023-05-05T05:22:43.463Z,100.00
2023-05-05T05:25:12.068Z,100.00
2023-05-05T05:27:39.974Z,100.00
2023-05-05T05:30:10.017Z,100.00
2023-05-05T05:32:38.354Z,100.00
2023-05-05T05:35:07.247Z,100.00
2023-05-05T05:37:36.915Z,100.00
2023-05-05T05:40:06.272Z,100.00
2023-05-05T05:42:34.671Z,100.00
2023-05-05T05:45:02.864Z,100.00
2023-05-05T05:47:30.871Z,100.00
2023-05-05T05:49:58.950Z,100.00
2023-05-05T05:52:27.149Z,100.00
2023-05-05T05:54:56.657Z,100.00
2023-05-05T05:57:24.774Z,100.00
2023-05-05T05:59:53.962Z,100.00
2023-05-05T06:02:22.074Z,100.00
2023-05-05T06:04:50.237Z,100.00
2023-05-05T06:07:18.391Z,100.00
2023-05-05T06:09:46.629Z,100.00
2023-05-05T06:12:16.179Z,98.69
2023-05-05T06:14:44.437Z,98.42
2023-05-05T06:17:12.630Z,97.21
2023-05-05T06:19:41.150Z,97.35
2023-05-05T06:22:09.177Z,97.03
2023-05-05T06:24:37.340Z,96.80
2023-05-05T06:27:05.616Z,93.70
2023-05-05T06:29:35.244Z,93.28
2023-05-05T06:32:03.413Z,92.96
2023-05-05T06:34:31.562Z,92.09
2023-05-05T06:36:59.836Z,92.90
2023-05-05T06:39:27.869Z,93.33
2023-05-05T06:41:56.031Z,92.57
2023-05-05T06:44:24.163Z,90.32
2023-05-05T06:46:55.212Z,87.71
2023-05-05T06:49:23.385Z,84.15
2023-05-05T06:51:51.419Z,84.92
2023-05-05T06:54:19.589Z,85.93
2023-05-05T06:56:47.780Z,85.35
2023-05-05T06:59:15.803Z,86.10
2023-05-05T07:01:43.843Z,86.94
2023-05-05T07:04:13.578Z,87.75
2023-05-05T07:06:41.650Z,88.98
2023-05-05T07:09:09.893Z,89.41
2023-05-05T07:11:40.218Z,90.24
2023-05-05T07:14:08.278Z,91.20
2023-05-05T07:16:37.324Z,93.12
2023-05-05T07:19:06.636Z,94.22
2023-05-05T07:21:37.077Z,94.75
2023-05-05T07:24:05.494Z,92.93
2023-05-05T07:26:33.961Z,91.92
2023-05-05T07:29:04.603Z,92.03
2023-05-05T07:31:32.733Z,91.88
2023-05-05T07:34:00.887Z,92.72
2023-05-05T07:36:29.370Z,90.88
2023-05-05T07:38:58.919Z,91.82
2023-05-05T07:41:27.252Z,91.20
2023-05-05T07:43:55.365Z,90.07
2023-05-05T07:46:23.494Z,88.13
2023-05-05T07:48:52.899Z,88.37
2023-05-05T07:51:21.543Z,88.52
2023-05-05T07:53:49.656Z,84.84
2023-05-05T07:56:21.568Z,86.00
2023-05-05T07:58:50.018Z,85.40
2023-05-05T08:01:18.190Z,86.38
2023-05-05T08:03:46.337Z,81.82
2023-05-05T08:06:16.777Z,84.48
2023-05-05T08:08:44.849Z,80.38
2023-05-05T08:11:12.871Z,83.12
2023-05-05T08:13:43.045Z,78.99
2023-05-05T08:16:11.218Z,76.77
2023-05-05T08:18:39.895Z,71.29
2023-05-05T08:21:09.212Z,74.82
2023-05-05T08:23:37.743Z,74.64
2023-05-05T08:26:06.739Z,76.64
2023-05-05T08:28:36.524Z,72.43
2023-05-05T08:31:06.850Z,71.46
2023-05-05T08:33:35.256Z,70.86
2023-05-05T08:36:03.701Z,74.42
2023-05-05T08:38:31.899Z,70.82
2023-05-05T08:41:00.157Z,70.02
2023-05-05T08:43:28.262Z,69.08
2023-05-05T08:45:57.298Z,71.27
2023-05-05T08:48:29.982Z,70.72
2023-05-05T08:51:02.636Z,69.38
2023-05-05T08:53:46.002Z,67.62
2023-05-05T08:56:15.616Z,66.32
2023-05-05T08:58:44.659Z,65.42
2023-05-05T09:01:14.840Z,65.70
2023-05-05T09:03:45.140Z,65.88
2023-05-05T09:06:13.454Z,63.41
2023-05-05T09:08:42.530Z,60.66
2023-05-05T09:11:10.603Z,58.19
2023-05-05T09:13:38.779Z,61.23
2023-05-05T09:16:07.564Z,60.95
2023-05-05T09:18:39.052Z,61.50
2023-05-05T09:21:22.519Z,59.59
2023-05-05T09:24:08.849Z,57.25
2023-05-05T09:26:38.845Z,54.47
2023-05-05T09:29:07.494Z,54.42
2023-05-05T09:31:37.372Z,52.32
2023-05-05T09:34:15.932Z,52.80
2023-05-05T09:36:48.313Z,49.91
2023-05-05T09:39:19.058Z,50.72
2023-05-05T09:41:47.421Z,51.38
2023-05-05T09:44:17.149Z,50.25
2023-05-05T09:46:52.661Z,50.82
2023-05-05T09:49:25.681Z,50.42
2023-05-05T09:51:55.854Z,50.22
2023-05-05T09:54:25.326Z,50.43
2023-05-05T09:56:53.565Z,50.13
2023-05-05T09:59:22.235Z,50.29
2023-05-05T10:01:50.908Z,51.07
2023-05-05T10:04:26.323Z,49.64
2023-05-05T10:06:56.341Z,50.94
2023-05-05T10:09:24.802Z,48.71
2023-05-05T10:11:53.970Z,48.96
2023-05-05T10:14:22.670Z,48.83
2023-05-05T10:16:52.088Z,50.33
2023-05-05T10:19:21.843Z,49.19
2023-05-05T10:21:52.483Z,47.84
2023-05-05T10:24:36.242Z,46.34
2023-05-05T10:27:11.512Z,46.07
2023-05-05T10:29:49.619Z,45.87
2023-05-05T10:32:47.434Z,45.16
2023-05-05T10:35:18.103Z,43.97
2023-05-05T10:37:46.770Z,43.42
2023-05-05T10:40:17.791Z,41.94
2023-05-05T10:42:46.199Z,42.35
2023-05-05T10:45:14.367Z,41.22
2023-05-05T10:47:44.332Z,40.82
2023-05-05T10:50:21.405Z,42.37
2023-05-05T10:52:59.543Z,42.38
2023-05-05T10:55:38.326Z,42.06
2023-05-05T10:58:06.458Z,42.12
2023-05-05T11:00:53.094Z,40.21
2023-05-05T11:03:22.942Z,41.95
2023-05-05T11:06:18.205Z,41.11
2023-05-05T11:08:46.550Z,40.99
2023-05-05T11:11:16.190Z,40.79
2023-05-05T11:13:44.378Z,41.56
2023-05-05T11:16:44.993Z,39.79
2023-05-05T11:19:48.191Z,40.29
2023-05-05T11:22:17.630Z,40.76
2023-05-05T11:24:46.392Z,41.02
2023-05-05T11:27:15.839Z,40.50
2023-05-05T11:30:06.881Z,39.41
2023-05-05T11:32:35.137Z,39.91
2023-05-05T11:35:03.958Z,39.64
2023-05-05T11:37:32.134Z,39.48
2023-05-05T11:40:19.975Z,38.68
2023-05-05T11:42:49.465Z,38.80
2023-05-05T11:45:22.925Z,37.27
2023-05-05T11:47:51.123Z,37.96
2023-05-05T11:50:23.231Z,37.11
2023-05-05T11:52:51.467Z,36.41
2023-05-05T11:55:26.077Z,35.67
2023-05-05T11:57:55.286Z,36.35
2023-05-05T12:00:34.474Z,35.44
2023-05-05T12:03:02.802Z,36.75
2023-05-05T12:05:31.063Z,36.54
2023-05-05T12:07:59.851Z,36.48
2023-05-05T12:10:31.833Z,36.47
2023-05-05T12:13:01.432Z,35.71
2023-05-05T12:15:30.594Z,34.99
2023-05-05T12:18:03.106Z,35.22
2023-05-05T12:20:32.785Z,34.68
2023-05-05T12:23:02.158Z,34.33
2023-05-05T12:25:38.201Z,33.30
2023-05-05T12:28:09.492Z,33.40
2023-05-05T12:30:37.683Z,32.89
2023-05-05T12:33:07.363Z,31.74
2023-05-05T12:35:36.616Z,31.79
2023-05-05T12:38:04.659Z,31.29
2023-05-05T12:40:46.509Z,31.03
2023-05-05T12:43:29.833Z,29.87
2023-05-05T12:46:06.078Z,30.18
2023-05-05T12:48:34.616Z,30.03
2023-05-05T12:51:20.529Z,30.70
2023-05-05T12:53:50.118Z,30.26
2023-05-05T12:56:34.589Z,29.19
2023-05-05T12:59:05.624Z,30.05
2023-05-05T13:01:33.898Z,29.72
2023-05-05T13:04:12.959Z,26.92
2023-05-05T13:06:42.630Z,25.43
2023-05-05T13:09:11.482Z,24.69
2023-05-05T13:11:40.829Z,25.24
2023-05-05T13:14:10.226Z,25.96
2023-05-05T13:16:38.615Z,26.54
2023-05-05T13:19:06.718Z,27.13
2023-05-05T13:21:35.120Z,25.01
2023-05-05T13:24:18.237Z,23.04
2023-05-05T13:26:52.209Z,20.17
2023-05-05T13:29:21.768Z,19.05
2023-05-05T13:31:50.720Z,18.38
2023-05-05T13:34:19.099Z,18.12
2023-05-05T13:36:47.133Z,17.13
2023-05-05T13:39:15.134Z,15.84
2023-05-05T13:41:44.668Z,14.91
2023-05-05T13:44:13.733Z,13.93
2023-05-05T13:46:43.607Z,13.38
2023-05-05T13:49:11.727Z,12.14
2023-05-05T13:51:39.925Z,11.62
2023-05-05T13:54:08.483Z,10.96
2023-05-05T13:56:37.918Z,10.83
2023-05-05T13:59:05.838Z,10.86
2023-05-05T14:01:33.839Z,11.06
2023-05-05T14:04:05.355Z,10.53
2023-05-05T14:06:34.042Z,10.44
2023-05-05T14:09:05.633Z,10.67
2023-05-05T14:11:33.864Z,11.09
2023-05-05T14:14:01.960Z,11.60
2023-05-05T14:16:30.080Z,12.58
2023-05-05T14:18:58.300Z,12.57
2023-05-05T14:21:27.667Z,13.11
2023-05-05T14:23:55.827Z,14.18
2023-05-05T14:26:23.940Z,14.25
2023-05-05T14:28:51.925Z,13.33
2023-05-05T14:31:20.143Z,13.48
2023-05-05T14:33:48.224Z,13.37
2023-05-05T14:36:16.306Z,13.17
2023-05-05T14:38:45.905Z,12.51
2023-05-05T14:41:14.060Z,12.44
2023-05-05T14:43:42.232Z,12.28
2023-05-05T14:46:10.466Z,11.74
2023-05-05T14:48:38.584Z,11.79
2023-05-05T14:51:06.735Z,12.09
2023-05-05T14:53:35.849Z,11.56
2023-05-05T14:56:05.734Z,12.08
2023-05-05T14:58:33.886Z,12.77
2023-05-05T15:01:02.110Z,12.33
2023-05-05T15:03:30.466Z,12.24
2023-05-05T15:05:58.669Z,11.90
2023-05-05T15:08:26.714Z,11.24
2023-05-05T15:10:54.706Z,11.59
2023-05-05T15:13:24.161Z,11.52
2023-05-05T15:15:52.456Z,11.30
2023-05-05T15:18:20.593Z,12.16
2023-05-05T15:20:48.660Z,12.88
2023-05-05T15:23:16.778Z,13.43
2023-05-05T15:25:45.443Z,13.16
2023-05-05T15:28:13.547Z,13.08
2023-05-05T15:30:42.899Z,12.89
2023-05-05T15:33:10.955Z,13.52
2023-05-05T15:35:39.406Z,12.30
2023-05-05T15:38:07.393Z,12.64
2023-05-05T15:40:35.525Z,11.90
2023-05-05T15:43:03.576Z,12.79
2023-05-05T15:45:31.602Z,12.38
2023-05-05T15:48:01.131Z,12.68
2023-05-05T15:50:29.298Z,13.30
2023-05-05T15:52:58.058Z,13.39
2023-05-05T15:55:26.334Z,13.37
2023-05-05T15:57:54.590Z,13.76
2023-05-05T16:00:23.585Z,13.74
2023-05-05T16:02:51.819Z,13.68
2023-05-05T16:05:23.100Z,13.53
2023-05-05T16:07:52.565Z,13.67
2023-05-05T16:10:20.803Z,14.22
2023-05-05T16:12:49.099Z,14.86
2023-05-05T16:15:17.356Z,15.11
2023-05-05T16:17:45.682Z,15.34
2023-05-05T16:20:14.221Z,15.55
2023-05-05T16:22:43.636Z,15.63
2023-05-05T16:25:11.732Z,15.70
2023-05-05T16:27:39.784Z,15.95
2023-05-05T16:30:10.288Z,17.11
2023-05-05T16:32:38.329Z,18.94
2023-05-05T16:35:07.850Z,20.42
2023-05-05T16:37:36.113Z,21.68
2023-05-05T16:40:06.712Z,22.38
2023-05-05T16:42:34.893Z,22.51
2023-05-05T16:45:03.053Z,23.38
2023-05-05T16:47:31.260Z,23.90
2023-05-05T16:49:59.537Z,23.89
2023-05-05T16:52:27.784Z,24.49
2023-05-05T16:54:56.758Z,23.75
2023-05-05T16:57:26.220Z,24.11
2023-05-05T16:59:56.354Z,24.61
2023-05-05T17:02:24.521Z,25.11
2023-05-05T17:04:52.867Z,26.04
2023-05-05T17:07:21.447Z,27.64
2023-05-05T17:09:49.592Z,28.59
2023-05-05T17:12:20.140Z,29.41
2023-05-05T17:14:49.641Z,30.47
2023-05-05T17:17:17.713Z,32.22
2023-05-05T17:19:46.078Z,33.61
2023-05-05T17:22:14.068Z,34.30
2023-05-05T17:24:43.083Z,34.68
2023-05-05T17:27:11.346Z,36.28
2023-05-05T17:29:41.224Z,37.67
2023-05-05T17:32:10.918Z,39.09
2023-05-05T17:34:39.115Z,40.67
2023-05-05T17:37:07.260Z,41.65
2023-05-05T17:39:35.320Z,42.47
2023-05-05T17:42:03.484Z,43.82
2023-05-05T17:44:32.702Z,45.22
2023-05-05T17:47:02.790Z,46.12
2023-05-05T17:49:32.600Z,47.35
2023-05-05T17:52:00.710Z,48.09
2023-05-05T17:54:28.744Z,49.48
2023-05-05T17:56:57.458Z,50.48
2023-05-05T17:59:25.555Z,51.37
2023-05-05T18:01:53.636Z,52.78
2023-05-05T18:04:21.654Z,53.77
2023-05-05T18:06:51.228Z,54.85
2023-05-05T18:09:20.775Z,55.62
2023-05-05T18:11:48.908Z,56.90
2023-05-05T18:14:18.711Z,57.75
2023-05-05T18:16:49.927Z,58.45
2023-05-05T18:19:18.347Z,59.29
2023-05-05T18:21:46.487Z,61.03
2023-05-05T18:24:20.310Z,62.62
2023-05-05T18:26:50.050Z,63.39
2023-05-05T18:29:18.908Z,64.10
2023-05-05T18:31:48.830Z,64.59
2023-05-05T18:34:17.846Z,65.23
2023-05-05T18:36:46.732Z,66.05
2023-05-05T18:39:16.414Z,66.20
2023-05-05T18:41:44.697Z,66.98
2023-05-05T18:44:12.890Z,69.05
2023-05-05T18:46:41.139Z,72.06
2023-05-05T18:49:09.512Z,74.34
2023-05-05T18:51:37.513Z,75.78
2023-05-05T18:54:05.832Z,77.11
2023-05-05T18:56:35.297Z,78.81
2023-05-05T18:59:03.442Z,79.31
2023-05-05T19:01:31.555Z,79.29
2023-05-05T19:03:59.707Z,79.25
2023-05-05T19:06:27.966Z,80.17
2023-05-05T19:08:56.997Z,81.14
2023-05-05T19:11:25.245Z,81.96
2023-05-05T19:13:54.699Z,82.36
2023-05-05T19:16:23.001Z,83.18
2023-05-05T19:18:51.327Z,84.62
2023-05-05T19:21:19.443Z,86.15
2023-05-05T19:23:47.649Z,86.42
2023-05-05T19:26:16.243Z,86.97
2023-05-05T19:28:44.364Z,87.47
2023-05-05T19:31:14.055Z,87.80
2023-05-05T19:33:45.683Z,88.03
2023-05-05T19:36:14.147Z,88.56
2023-05-05T19:38:44.593Z,89.17
2023-05-05T19:41:13.268Z,89.46
2023-05-05T19:43:41.518Z,90.77
2023-05-05T19:46:09.613Z,91.44
2023-05-05T19:48:39.271Z,91.53
2023-05-05T19:51:07.477Z,91.72
2023-05-05T19:53:35.870Z,91.42
2023-05-05T19:56:04.838Z,91.08
2023-05-05T19:58:53.455Z,91.78
2023-05-05T20:01:21.687Z,91.81
2023-05-05T20:03:51.500Z,92.62
2023-05-05T20:06:19.643Z,93.46
2023-05-05T20:08:47.743Z,94.20
2023-05-05T20:11:18.272Z,93.94
2023-05-05T20:13:46.702Z,93.83
2023-05-05T20:16:15.076Z,93.84
2023-05-05T20:18:43.331Z,93.58
2023-05-05T20:21:12.795Z,93.80
2023-05-05T20:23:42.938Z,94.55
2023-05-05T20:26:11.381Z,95.26
2023-05-05T20:28:44.188Z,95.52
2023-05-05T20:31:13.219Z,95.25
2023-05-05T20:33:41.358Z,94.98
2023-05-05T20:36:09.685Z,94.63
2023-05-05T20:38:39.168Z,94.76
2023-05-05T20:41:07.100Z,95.02
2023-05-05T20:43:35.164Z,95.37
2023-05-05T20:46:03.454Z,96.24
2023-05-05T20:48:31.504Z,96.10
2023-05-05T20:50:59.575Z,96.02
2023-05-05T20:53:27.765Z,95.70
2023-05-05T20:55:57.178Z,96.42
2023-05-05T20:58:25.840Z,96.87
2023-05-05T21:00:53.920Z,97.29
2023-05-05T21:03:22.054Z,97.32
2023-05-05T21:05:50.150Z,97.00
2023-05-05T21:08:18.219Z,97.25
2023-05-05T21:10:46.399Z,97.82
2023-05-05T21:13:15.993Z,97.83
2023-05-05T21:15:44.025Z,97.37
2023-05-05T21:18:12.195Z,98.09
2023-05-05T21:20:40.292Z,98.09
2023-05-05T21:23:08.361Z,98.58
2023-05-05T21:25:37.561Z,98.05
2023-05-05T21:28:06.215Z,98.69
2023-05-05T21:30:35.676Z,99.00
2023-05-05T21:33:03.826Z,98.90
2023-05-05T21:35:31.962Z,99.44
2023-05-05T21:38:00.156Z,99.85
2023-05-05T21:40:28.407Z,99.80
2023-05-05T21:42:56.682Z,99.62
2023-05-05T21:45:25.016Z,99.79
2023-05-05T21:47:54.605Z,99.72
2023-05-05T21:50:22.819Z,100.00
2023-05-05T21:52:50.952Z,100.00
2023-05-05T21:55:19.207Z,100.00
2023-05-05T21:57:47.372Z,100.00
2023-05-05T22:00:16.925Z,100.00
2023-05-05T22:02:45.223Z,100.00
2023-05-05T22:05:14.740Z,100.00
2023-05-05T22:07:42.781Z,100.00
2023-05-05T22:10:11.678Z,100.00
2023-05-05T22:12:39.954Z,100.00
2023-05-05T22:15:09.505Z,100.00
2023-05-05T22:17:37.932Z,100.00
2023-05-05T22:20:10.050Z,100.00
2023-05-05T22:22:39.962Z,100.00
2023-05-05T22:25:08.940Z,100.00
2023-05-05T22:27:37.166Z,100.00
2023-05-05T22:30:06.169Z,100.00
2023-05-05T22:32:34.283Z,100.00
2023-05-05T22:35:02.452Z,100.00
2023-05-05T22:37:30.579Z,100.00
2023-05-05T22:39:59.992Z,100.00
2023-05-05T22:42:28.096Z,100.00
2023-05-05T22:44:58.455Z,100.00
2023-05-05T22:47:26.911Z,100.00
2023-05-05T22:49:55.176Z,100.00
2023-05-05T22:52:25.795Z,100.00
2023-05-05T22:54:53.856Z,100.00
2023-05-05T22:57:23.478Z,100.00
2023-05-05T22:59:51.893Z,100.00
2023-05-05T23:02:20.023Z,100.00
2023-05-05T23:04:48.096Z,100.00
2023-05-05T23:07:16.294Z,100.00
2023-05-05T23:09:44.217Z,100.00
2023-05-05T23:12:12.205Z,100.00
2023-05-05T23:14:41.942Z,100.00
2023-05-05T23:17:10.327Z,100.00
2023-05-05T23:19:38.811Z,100.00
2023-05-05T23:22:06.910Z,100.00
2023-05-05T23:24:34.861Z,100.00
2023-05-05T23:27:03.232Z,100.00
2023-05-05T23:29:31.482Z,100.00
2023-05-05T23:32:00.920Z,100.00
2023-05-05T23:34:29.075Z,100.00
2023-05-05T23:36:57.200Z,100.00
2023-05-05T23:39:25.146Z,100.00
2023-05-05T23:41:53.163Z,100.00
2023-05-05T23:44:21.193Z,100.00
2023-05-05T23:46:49.253Z,100.00
2023-05-05T23:49:19.002Z,100.00
2023-05-05T23:51:47.191Z,100.00
2023-05-05T23:54:15.216Z,100.00
2023-05-05T23:56:43.262Z,100.00
2023-05-05T23:59:11.356Z,100.00
